Mount Pleasant, PA

7:07 PM EDT on July 28, 2016 (GMT -0400)
Mammoth County Park | | Change Station

Elev 1150 ft 40.21 °N, 79.46 °W | Updated 2 seconds ago

Light Rain
Light Rain Mist
72.1 °F
Feels Like 72.1 °F
N
0.0
Wind Variable Wind from SE
Gusts 0.0 mph

Today
High -- | Low -- °F
--% Chance of Precip.
Yesterday
High -- | Low -- °F
Precip. -- in
Pressure 29.91 in
Visibility 5.0 miles
Clouds Scattered Clouds 1200 ft
Mostly Cloudy 3000 ft
Dew Point 71 °F
Humidity 97%
Rainfall 0.36 in
Snow Depth Not available.
6:12 AM 8:35 PM
Waning Crescent, 28% visible
METAR KLBE 282245Z VRB04KT 5SM -RA BR SCT012 BKN030 22/22 A2991
Pressure 29.91 in
Visibility 5.0 miles
Clouds Scattered Clouds 1200 ft
Mostly Cloudy 3000 ft
Dew Point 71 °F
Humidity 97%
Rainfall 0.36 in
Snow Depth Not available.
6:12 AM 8:35 PM
Waning Crescent, 28% visible
METAR KLBE 282245Z VRB04KT 5SM -RA BR SCT012 BKN030 22/22 A2991

10-Day Weather Forecast

Almanac

Astronomy

Jul. 28, 2016 Rise Set
Actual Time
Civil Twilight
Nautical Twilight
Astronomical Twilight
Moon
Length of Visible Light
Length of Day
Tomorrow will be .
, % of the Moon is Illuminated

Today's Extremes

State Highs State Lows

Community

WunderPhotos

Upload Photos

1,928,226 photos uploaded!

WunderBlog® & News

Nearby

Air Quality

  Air Quality AQ Index Pollutant
Not available.

Snow Depth

Station Depth Elevation

Earthquake Activity

City Distance Mag. Time & Date
Minimum magnitude displayed is 2.5.

Coastal Water Temperatures

Place Temperature

Stations

Nearby Weather Stations

Station Location Temp. Windchill Dew Point Humidity Wind Precip. Elev Updated Type
                   

Watches & Warnings

There are currently no watches in effect.